Time;durP1;ratioP1;P1;durP2;ratioP2;P2;SDS_P1;SDS_P2;PMS_P1;PMS_P2;Temp;Humidity;BMP_temperature;BMP_pressure;BME280_temperature;BME280_humidity;BME280_pressure;Samples;Min_cycle;Max_cycle;Signal;HPM_P1;HPM_P2
2022/08/25 00:01:16;;;;;;;4.23;4.03;;;24.60;47.00;;;;;;5020781;28;20801;-59
2022/08/25 00:03:43;;;;;;;4.10;3.90;;;24.60;47.00;;;;;;5015502;28;20456;-59
2022/08/25 00:06:09;;;;;;;3.97;3.77;;;24.60;47.00;;;;;;5019025;28;20793;-58
2022/08/25 00:08:37;;;;;;;3.67;3.47;;;24.60;47.00;;;;;;5018166;28;20483;-60
2022/08/25 00:11:22;;;;;;;3.47;3.33;;;24.60;47.00;;;;;;5023883;28;20452;-60
2022/08/25 00:13:52;;;;;;;3.80;3.60;;;24.60;47.00;;;;;;5016783;28;20470;-58
2022/08/25 00:16:20;;;;;;;3.30;3.20;;;24.60;47.00;;;;;;5015480;28;20460;-58
2022/08/25 00:18:50;;;;;;;4.47;4.27;;;24.60;47.00;;;;;;5001502;28;20563;-58
2022/08/25 00:21:16;;;;;;;4.27;4.07;;;24.60;47.00;;;;;;5018694;28;20451;-58
2022/08/25 00:23:44;;;;;;;3.20;3.00;;;24.60;47.00;;;;;;5015505;28;20510;-59
2022/08/25 00:26:10;;;;;;;3.60;3.43;;;24.60;47.00;;;;;;5006050;28;20223;-59
2022/08/25 00:28:36;;;;;;;3.37;3.27;;;24.60;46.90;;;;;;5011563;28;20932;-59
2022/08/25 00:31:03;;;;;;;3.57;3.40;;;24.60;46.90;;;;;;5003706;28;20460;-59
2022/08/25 00:33:32;;;;;;;3.90;3.70;;;24.60;46.90;;;;;;5008328;28;20822;-59
2022/08/25 00:35:59;;;;;;;4.10;3.90;;;24.60;46.90;;;;;;5004748;28;20556;-60
2022/08/25 00:38:24;;;;;;;4.00;3.80;;;24.60;46.90;;;;;;5011123;28;20484;-59
2022/08/25 00:41:04;;;;;;;3.30;3.20;;;24.50;46.80;;;;;;5014507;28;20448;-59
2022/08/25 00:43:36;;;;;;;3.73;3.53;;;24.60;46.90;;;;;;5010361;28;20219;-59
2022/08/25 00:46:02;;;;;;;3.87;3.67;;;24.60;46.90;;;;;;5017396;28;20452;-58
2022/08/25 00:48:28;;;;;;;3.57;3.37;;;24.60;47.00;;;;;;5018331;28;20522;-59
2022/08/25 00:50:53;;;;;;;3.60;3.40;;;24.60;46.90;;;;;;5018067;28;20282;-59
2022/08/25 00:53:19;;;;;;;3.80;3.60;;;24.60;46.90;;;;;;5012628;28;20298;-59
2022/08/25 00:55:46;;;;;;;3.50;3.40;;;24.60;47.70;;;;;;5018929;28;20219;-59
2022/08/25 00:58:17;;;;;;;3.93;3.73;;;24.50;46.80;;;;;;5017480;28;21322;-59
2022/08/25 01:00:48;;;;;;;4.10;3.80;;;24.60;46.90;;;;;;5013922;28;20523;-60
2022/08/25 01:03:17;;;;;;;3.60;3.40;;;24.50;46.70;;;;;;5015338;28;20460;-60
2022/08/25 01:05:43;;;;;;;4.00;3.70;;;24.50;46.70;;;;;;5025310;28;20462;-59
2022/08/25 01:08:11;;;;;;;3.87;3.67;;;24.50;46.80;;;;;;5002504;28;20539;-62
2022/08/25 01:10:40;;;;;;;3.90;3.80;;;24.50;46.70;;;;;;5009637;28;20488;-58
2022/08/25 01:13:22;;;;;;;3.70;3.60;;;24.50;46.70;;;;;;5018446;28;20452;-59
2022/08/25 01:15:52;;;;;;;3.50;3.40;;;24.50;46.70;;;;;;5002151;28;20469;-59
2022/08/25 01:18:18;;;;;;;3.60;3.40;;;24.50;46.80;;;;;;5004853;28;20486;-58
2022/08/25 01:20:47;;;;;;;3.80;3.50;;;24.50;46.70;;;;;;5007827;28;20459;-60
2022/08/25 01:23:13;;;;;;;3.60;3.40;;;24.50;46.70;;;;;;5013930;28;20226;-60
2022/08/25 01:26:03;;;;;;;3.70;3.50;;;24.50;46.70;;;;;;5021592;28;20463;-58
2022/08/25 01:28:28;;;;;;;3.97;3.77;;;24.50;46.70;;;;;;4997540;28;20250;-60
2022/08/25 01:30:54;;;;;;;3.83;3.63;;;24.50;46.70;;;;;;5008504;28;20456;-59
2022/08/25 01:33:20;;;;;;;3.70;3.50;;;24.50;46.70;;;;;;5012243;28;20223;-59
2022/08/25 01:35:46;;;;;;;3.67;3.57;;;24.50;46.70;;;;;;5021218;28;20444;-59
2022/08/25 01:38:13;;;;;;;3.50;3.33;;;24.50;46.60;;;;;;5010084;28;20310;-59
2022/08/25 01:40:41;;;;;;;3.60;3.43;;;24.50;46.70;;;;;;5021295;28;20481;-58
2022/08/25 01:43:10;;;;;;;3.70;3.50;;;24.50;46.70;;;;;;5008459;28;20471;-64
2022/08/25 01:45:38;;;;;;;3.63;3.47;;;24.50;46.60;;;;;;5011639;28;20453;-59
2022/08/25 01:48:06;;;;;;;4.20;4.00;;;24.50;46.70;;;;;;5016149;28;20512;-59
2022/08/25 01:50:32;;;;;;;3.90;3.70;;;24.50;46.70;;;;;;5016134;28;20535;-63
2022/08/25 01:53:10;;;;;;;3.67;3.57;;;24.50;46.70;;;;;;5012671;28;21209;-60
2022/08/25 01:55:52;;;;;;;3.83;3.63;;;24.50;46.70;;;;;;5009616;28;20443;-59
2022/08/25 01:58:26;;;;;;;3.43;3.33;;;24.50;46.70;;;;;;4927093;28;21048;-59
2022/08/25 02:00:55;;;;;;;4.57;4.37;;;24.50;46.60;;;;;;5007624;28;20462;-57
2022/08/25 02:03:23;;;;;;;3.77;3.57;;;24.50;46.70;;;;;;4991588;28;20464;-59
2022/08/25 02:05:50;;;;;;;3.47;3.37;;;24.50;46.70;;;;;;4985867;28;20466;-60
2022/08/25 02:08:17;;;;;;;3.20;3.10;;;24.50;46.60;;;;;;4999888;28;20547;-58
2022/08/25 02:10:45;;;;;;;3.53;3.33;;;24.50;46.60;;;;;;5013610;28;20456;-59
2022/08/25 02:13:11;;;;;;;3.40;3.30;;;24.50;46.70;;;;;;4994727;28;21510;-59
2022/08/25 02:15:42;;;;;;;3.70;3.50;;;24.50;46.60;;;;;;4999031;28;20574;-60
2022/08/25 02:18:08;;;;;;;3.40;3.30;;;24.50;46.60;;;;;;5003252;28;20481;-60
2022/08/25 02:20:34;;;;;;;3.30;3.20;;;24.50;46.60;;;;;;5008905;28;20449;-58
2022/08/25 02:22:59;;;;;;;3.10;3.00;;;24.50;46.50;;;;;;5003537;28;20222;-61
2022/08/25 02:25:27;;;;;;;3.37;3.20;;;24.50;46.50;;;;;;4996372;28;20250;-58
2022/08/25 02:27:53;;;;;;;3.80;3.60;;;24.50;46.50;;;;;;5011962;28;20219;-58
2022/08/25 02:30:19;;;;;;;3.70;3.50;;;24.50;46.50;;;;;;4993429;28;20547;-59
2022/08/25 02:32:44;;;;;;;3.50;3.40;;;24.50;46.40;;;;;;5019939;28;20528;-61
2022/08/25 02:35:11;;;;;;;3.40;3.20;;;24.50;46.40;;;;;;5014802;28;20464;-60
2022/08/25 02:37:36;;;;;;;3.90;3.70;;;24.50;46.40;;;;;;4997512;28;20231;-58
2022/08/25 02:40:04;;;;;;;3.47;3.27;;;24.50;46.40;;;;;;5003020;28;20523;-58
2022/08/25 02:42:30;;;;;;;3.23;3.13;;;24.50;46.30;;;;;;4987080;28;20246;-58
2022/08/25 02:44:56;;;;;;;3.50;3.40;;;24.50;46.30;;;;;;5002753;28;20885;-58
2022/08/25 02:47:25;;;;;;;3.23;3.13;;;24.50;46.30;;;;;;5008880;28;20214;-58
2022/08/25 02:49:54;;;;;;;4.03;3.83;;;24.50;46.20;;;;;;5014194;28;20269;-59
2022/08/25 02:52:20;;;;;;;3.50;3.33;;;24.50;46.20;;;;;;5016777;28;20540;-61
2022/08/25 02:54:45;;;;;;;3.80;3.60;;;24.50;46.20;;;;;;5014774;28;20456;-59
2022/08/25 02:57:12;;;;;;;3.50;3.40;;;24.50;46.20;;;;;;5001292;28;20229;-58
2022/08/25 02:59:38;;;;;;;3.60;3.40;;;24.50;46.20;;;;;;5008630;28;20591;-59
2022/08/25 03:02:06;;;;;;;3.00;2.90;;;24.50;46.10;;;;;;5001007;28;20456;-58
2022/08/25 03:04:32;;;;;;;3.50;3.37;;;24.50;46.10;;;;;;5005602;28;20226;-58
2022/08/25 03:07:00;;;;;;;3.13;3.03;;;24.50;46.10;;;;;;5003326;28;20807;-59
2022/08/25 03:09:26;;;;;;;3.20;3.10;;;24.50;46.10;;;;;;4993073;28;20468;-60
2022/08/25 03:11:52;;;;;;;3.63;3.53;;;24.50;46.00;;;;;;5007170;28;20473;-58
2022/08/25 03:14:18;;;;;;;2.90;2.80;;;24.50;46.00;;;;;;5007803;28;20590;-61
2022/08/25 03:16:44;;;;;;;3.37;3.27;;;24.40;45.90;;;;;;5009467;28;20576;-62
2022/08/25 03:19:10;;;;;;;3.10;3.00;;;24.50;46.00;;;;;;5012141;28;20833;-58
2022/08/25 03:21:39;;;;;;;3.07;2.97;;;24.50;46.00;;;;;;4993582;28;20459;-61
2022/08/25 03:24:06;;;;;;;3.17;3.07;;;24.50;45.90;;;;;;5002182;28;20708;-62
2022/08/25 03:29:17;;;;;;;3.17;2.97;;;24.50;45.90;;;;;;5000683;28;20481;-60
2022/08/25 03:31:44;;;;;;;3.40;3.10;;;24.40;45.80;;;;;;5009414;28;20479;-61
2022/08/25 03:34:15;;;;;;;3.73;3.47;;;24.40;45.80;;;;;;5013116;28;20472;-60
2022/08/25 03:36:49;;;;;;;3.20;3.10;;;24.40;45.80;;;;;;5005511;28;20772;-59
2022/08/25 03:39:16;;;;;;;4.10;3.80;;;24.40;45.80;;;;;;4995608;28;20476;-59
2022/08/25 03:41:46;;;;;;;3.30;3.10;;;24.40;45.80;;;;;;5006589;28;20955;-60
2022/08/25 03:44:12;;;;;;;3.50;3.30;;;24.40;45.80;;;;;;5005960;28;20460;-58
2022/08/25 03:46:43;;;;;;;3.47;3.17;;;24.40;45.70;;;;;;5009706;28;20475;-59
2022/08/25 03:49:15;;;;;;;3.70;3.50;;;24.40;45.60;;;;;;4998655;28;20459;-58
2022/08/25 03:51:47;;;;;;;3.60;3.40;;;24.40;45.60;;;;;;4999565;28;21205;-59
2022/08/25 03:54:21;;;;;;;3.33;3.20;;;24.40;45.60;;;;;;5020048;28;20459;-60
2022/08/25 03:56:50;;;;;;;3.00;2.90;;;24.40;45.70;;;;;;4992659;28;20485;-63
2022/08/25 03:59:16;;;;;;;4.00;3.80;;;24.40;45.60;;;;;;5002748;28;20558;-63
2022/08/25 04:01:43;;;;;;;3.80;3.50;;;24.40;45.60;;;;;;4972860;28;20460;-59
2022/08/25 04:04:12;;;;;;;3.07;2.97;;;24.40;45.60;;;;;;4992248;28;20510;-60
2022/08/25 04:06:39;;;;;;;3.60;3.40;;;24.40;45.50;;;;;;4985148;28;20555;-60
2022/08/25 04:09:05;;;;;;;3.30;3.10;;;24.40;45.40;;;;;;4999775;28;20451;-58
2022/08/25 04:11:32;;;;;;;3.33;3.13;;;24.40;45.40;;;;;;4986696;28;20578;-58
2022/08/25 04:14:00;;;;;;;3.10;3.00;;;24.40;45.40;;;;;;4987631;28;20468;-59
2022/08/25 04:16:29;;;;;;;3.37;3.17;;;24.40;45.30;;;;;;5006699;28;20471;-58
2022/08/25 04:18:57;;;;;;;3.40;3.20;;;24.40;45.30;;;;;;5003048;28;20480;-62
2022/08/25 04:21:25;;;;;;;3.00;2.90;;;24.40;45.30;;;;;;4991226;28;20473;-60
2022/08/25 04:23:54;;;;;;;3.00;2.90;;;24.40;45.30;;;;;;5004929;28;20974;-63
2022/08/25 04:26:29;;;;;;;2.90;2.70;;;24.40;45.20;;;;;;5005748;28;20471;-63
2022/08/25 04:29:01;;;;;;;3.83;3.63;;;24.50;45.20;;;;;;5010014;28;20474;-61
2022/08/25 04:31:29;;;;;;;3.17;2.97;;;24.50;45.00;;;;;;5003903;28;21063;-59
2022/08/25 04:33:54;;;;;;;3.50;3.30;;;24.50;44.90;;;;;;5008837;28;20806;-60
2022/08/25 04:36:21;;;;;;;3.80;3.50;;;24.50;44.80;;;;;;5004451;28;20483;-61
2022/08/25 04:38:49;;;;;;;3.57;3.37;;;24.60;44.80;;;;;;5012307;28;20241;-60
2022/08/25 04:41:17;;;;;;;3.60;3.40;;;24.60;44.60;;;;;;5004658;28;20467;-62
2022/08/25 04:43:43;;;;;;;3.47;3.27;;;24.60;44.50;;;;;;5005006;28;20556;-59
2022/08/25 04:46:22;;;;;;;3.60;3.40;;;24.60;44.40;;;;;;5000019;28;21821;-58
2022/08/25 04:48:50;;;;;;;3.00;2.90;;;24.60;44.20;;;;;;5014063;28;20495;-61
2022/08/25 04:51:28;;;;;;;3.10;2.90;;;24.60;44.10;;;;;;5009513;28;21306;-59
2022/08/25 04:53:56;;;;;;;3.57;3.37;;;24.60;44.20;;;;;;4984976;28;20476;-61
2022/08/25 04:56:23;;;;;;;3.37;3.27;;;24.60;44.10;;;;;;4977841;28;20558;-63
2022/08/25 04:58:50;;;;;;;3.40;3.20;;;24.60;44.10;;;;;;5000552;28;20594;-61
2022/08/25 05:01:20;;;;;;;3.77;3.57;;;24.60;44.00;;;;;;4994302;28;20552;-59
2022/08/25 05:03:52;;;;;;;3.60;3.40;;;24.60;44.00;;;;;;4998232;28;20230;-61
2022/08/25 05:06:18;;;;;;;2.90;2.80;;;24.60;44.00;;;;;;5008295;28;20487;-63
2022/08/25 05:08:44;;;;;;;3.80;3.60;;;24.60;43.90;;;;;;5001708;28;20584;-59
2022/08/25 05:11:13;;;;;;;3.50;3.20;;;24.60;43.90;;;;;;4991607;28;20300;-58
2022/08/25 05:13:40;;;;;;;3.73;3.53;;;24.60;43.80;;;;;;4999247;28;20448;-60
2022/08/25 05:16:07;;;;;;;3.50;3.30;;;24.60;43.90;;;;;;5005218;28;20464;-58
2022/08/25 05:18:34;;;;;;;3.67;3.47;;;24.60;43.90;;;;;;5013199;28;20483;-58
2022/08/25 05:21:06;;;;;;;3.47;3.27;;;24.60;43.80;;;;;;5007971;28;20458;-58
2022/08/25 05:23:32;;;;;;;3.30;3.20;;;24.60;43.80;;;;;;5008593;28;20473;-58
2022/08/25 05:26:04;;;;;;;3.87;3.10;;;24.60;43.80;;;;;;5007911;28;20479;-58
2022/08/25 05:28:29;;;;;;;3.50;3.20;;;24.60;43.80;;;;;;5002113;28;20223;-57
2022/08/25 05:30:59;;;;;;;3.50;3.30;;;24.60;43.80;;;;;;5008090;28;20812;-58
2022/08/25 05:33:26;;;;;;;3.53;3.33;;;24.60;43.80;;;;;;5005563;28;20617;-58
2022/08/25 05:35:52;;;;;;;4.20;3.30;;;24.60;43.80;;;;;;4988526;28;20460;-57
2022/08/25 05:38:18;;;;;;;3.83;3.60;;;24.60;43.80;;;;;;5019577;28;20504;-58
2022/08/25 05:40:45;;;;;;;3.93;3.73;;;24.60;43.70;;;;;;5014052;28;20310;-57
2022/08/25 05:43:14;;;;;;;3.77;3.57;;;24.60;43.70;;;;;;5023747;28;20451;-57
2022/08/25 05:45:40;;;;;;;3.30;3.00;;;24.60;43.70;;;;;;5010755;28;20448;-57
2022/08/25 05:48:06;;;;;;;3.40;3.20;;;24.60;43.70;;;;;;5013655;28;21061;-58
2022/08/25 05:50:32;;;;;;;3.27;3.07;;;24.60;43.70;;;;;;5011064;28;20540;-58
2022/08/25 05:52:57;;;;;;;3.20;3.10;;;24.60;43.70;;;;;;5011533;28;20214;-58
2022/08/25 05:55:24;;;;;;;3.40;3.20;;;24.60;43.70;;;;;;5010801;28;20309;-58
2022/08/25 05:57:49;;;;;;;3.00;2.90;;;24.60;43.70;;;;;;5018724;28;20246;-58
2022/08/25 06:00:16;;;;;;;3.63;3.33;;;24.60;43.70;;;;;;5002275;28;20959;-58
2022/08/25 06:02:47;;;;;;;3.63;3.43;;;24.60;43.70;;;;;;5015335;28;20226;-58
2022/08/25 06:05:21;;;;;;;3.23;3.03;;;24.60;43.60;;;;;;5018155;28;20923;-57
2022/08/25 06:07:50;;;;;;;3.40;3.20;;;24.60;43.70;;;;;;5009297;28;20462;-58
2022/08/25 06:10:16;;;;;;;3.93;3.73;;;24.60;43.60;;;;;;5016966;28;20464;-58
2022/08/25 06:12:44;;;;;;;3.40;3.20;;;24.60;43.50;;;;;;5004271;28;20467;-58
2022/08/25 06:15:17;;;;;;;3.50;3.30;;;24.60;43.70;;;;;;5017277;28;20484;-58
2022/08/25 06:17:47;;;;;;;3.70;3.50;;;24.60;43.50;;;;;;4988744;28;20479;-58
2022/08/25 06:20:16;;;;;;;3.90;3.70;;;24.60;43.60;;;;;;5008108;28;20460;-57
2022/08/25 06:22:43;;;;;;;3.93;3.73;;;24.60;43.60;;;;;;5004235;28;21038;-57
2022/08/25 06:25:10;;;;;;;3.73;3.53;;;24.60;43.60;;;;;;5015325;28;20913;-58
2022/08/25 06:27:38;;;;;;;4.60;3.57;;;24.60;43.70;;;;;;4986903;28;20461;-58
2022/08/25 06:30:09;;;;;;;4.67;3.20;;;24.60;43.60;;;;;;4991104;28;20465;-58
2022/08/25 06:32:40;;;;;;;3.30;3.10;;;24.60;43.60;;;;;;4994199;28;21026;-59
2022/08/25 06:35:09;;;;;;;3.60;3.40;;;24.60;43.60;;;;;;4996876;28;20571;-59
2022/08/25 06:37:35;;;;;;;3.83;3.63;;;24.60;43.70;;;;;;4977118;28;20477;-58
2022/08/25 06:40:01;;;;;;;3.67;3.40;;;24.60;43.70;;;;;;4976594;28;20506;-58
2022/08/25 06:42:28;;;;;;;4.50;4.00;;;24.60;43.70;;;;;;4971873;28;20458;-58
2022/08/25 06:44:54;;;;;;;6.83;3.83;;;24.60;43.70;;;;;;4974123;28;20409;-60
2022/08/25 06:47:20;;;;;;;32.10;5.80;;;24.60;43.80;;;;;;4993667;28;20921;-60
2022/08/25 06:49:46;;;;;;;21.60;4.47;;;24.70;43.90;;;;;;4998641;28;20455;-59
2022/08/25 06:52:14;;;;;;;8.53;4.67;;;24.70;44.00;;;;;;4987067;28;20460;-58
2022/08/25 06:54:42;;;;;;;7.33;4.37;;;24.70;44.20;;;;;;4986908;28;20250;-57
2022/08/25 06:57:10;;;;;;;10.17;4.00;;;24.70;44.20;;;;;;5009192;28;20503;-59
2022/08/25 06:59:37;;;;;;;24.20;5.70;;;24.70;44.30;;;;;;5004155;28;21084;-58
2022/08/25 07:02:04;;;;;;;12.00;5.27;;;24.70;44.40;;;;;;5006871;28;20447;-60
2022/08/25 07:04:33;;;;;;;14.50;5.70;;;24.70;44.50;;;;;;5007071;28;20431;-59
2022/08/25 07:06:59;;;;;;;14.50;5.53;;;24.80;44.80;;;;;;5014115;28;20452;-57
2022/08/25 07:09:24;;;;;;;81.17;12.30;;;24.80;45.00;;;;;;5005629;28;20436;-57
2022/08/25 07:11:51;;;;;;;118.33;13.20;;;24.80;45.00;;;;;;5006624;28;21080;-58
2022/08/25 07:14:17;;;;;;;50.23;7.13;;;24.80;45.00;;;;;;5004260;28;20186;-59
2022/08/25 07:16:44;;;;;;;13.00;6.30;;;24.80;44.90;;;;;;5002001;28;20450;-59
2022/08/25 07:19:12;;;;;;;19.00;6.00;;;24.80;45.00;;;;;;5003267;28;20461;-58
2022/08/25 07:21:40;;;;;;;32.50;7.37;;;24.80;45.00;;;;;;5010745;28;20455;-61
2022/08/25 07:24:12;;;;;;;272.70;27.17;;;24.80;45.10;;;;;;5004051;28;20933;-57
2022/08/25 07:26:42;;;;;;;126.67;16.00;;;24.80;45.20;;;;;;5005087;28;21073;-58
2022/08/25 07:29:14;;;;;;;55.70;9.50;;;;;;;;;;5020858;28;20479;-64
2022/08/25 07:31:39;;;;;;;33.13;7.17;;;24.90;45.10;;;;;;5004279;28;20523;-62
2022/08/25 07:36:51;;;;;;;129.87;15.43;;;24.90;46.30;;;;;;5006710;28;20233;-62
2022/08/25 07:39:17;;;;;;;54.27;9.47;;;24.90;46.40;;;;;;5006715;28;20476;-61
2022/08/25 07:41:43;;;;;;;48.37;10.80;;;24.90;46.30;;;;;;5006037;28;20214;-59
2022/08/25 07:44:10;;;;;;;53.30;9.17;;;24.90;46.50;;;;;;5006873;28;20431;-61
2022/08/25 07:46:37;;;;;;;16.63;5.90;;;24.90;47.40;;;;;;5005350;28;20455;-60
2022/08/25 07:49:02;;;;;;;7.03;4.97;;;25.00;46.60;;;;;;5006244;28;20449;-63
2022/08/25 07:51:29;;;;;;;5.97;4.43;;;25.00;46.50;;;;;;5012897;28;20447;-60
2022/08/25 07:53:55;;;;;;;5.70;3.97;;;25.00;46.40;;;;;;5004265;28;20282;-62
2022/08/25 07:56:20;;;;;;;6.97;4.10;;;24.90;46.30;;;;;;5007107;28;20478;-62
2022/08/25 07:58:46;;;;;;;11.50;4.87;;;24.90;46.20;;;;;;5006245;28;20326;-60
2022/08/25 08:01:23;;;;;;;4.80;4.30;;;24.90;46.00;;;;;;5008382;28;20213;-59
2022/08/25 08:03:50;;;;;;;13.13;5.87;;;24.90;45.90;;;;;;5009137;28;20436;-59
2022/08/25 08:06:18;;;;;;;10.53;5.63;;;24.90;45.90;;;;;;5008241;28;20442;-61
2022/08/25 08:08:48;;;;;;;4.97;4.07;;;24.90;45.90;;;;;;5014201;28;21029;-60
2022/08/25 08:11:16;;;;;;;4.47;4.07;;;24.90;45.80;;;;;;5006973;28;20443;-59
2022/08/25 08:13:44;;;;;;;4.50;4.27;;;24.90;45.70;;;;;;5007784;28;22387;-62
2022/08/25 08:16:20;;;;;;;3.60;3.40;;;24.90;45.70;;;;;;5008136;28;20440;-59
2022/08/25 08:18:47;;;;;;;3.87;3.57;;;24.90;45.70;;;;;;5014870;28;20502;-59
2022/08/25 08:21:16;;;;;;;5.03;4.50;;;24.90;45.50;;;;;;5008792;28;20447;-59
2022/08/25 08:23:42;;;;;;;3.73;3.43;;;24.90;45.50;;;;;;5015821;28;20443;-63
2022/08/25 08:26:08;;;;;;;3.23;3.03;;;24.90;45.30;;;;;;5007075;28;20444;-60
2022/08/25 08:28:37;;;;;;;3.50;3.30;;;24.90;45.20;;;;;;5015503;28;20183;-59
2022/08/25 08:31:03;;;;;;;4.57;3.70;;;24.90;45.10;;;;;;5010203;28;20186;-60
2022/08/25 08:33:29;;;;;;;3.53;3.23;;;24.90;45.00;;;;;;5010361;28;20930;-59
2022/08/25 08:36:10;;;;;;;3.70;3.50;;;24.90;45.00;;;;;;5008949;28;20447;-59
2022/08/25 08:38:37;;;;;;;3.90;3.60;;;24.90;44.90;;;;;;5013143;28;20211;-62
2022/08/25 08:44:33;;;;;;;3.57;3.37;;;24.90;44.80;;;;;;5030989;28;20502;-60
2022/08/25 08:47:23;;;;;;;3.70;3.50;;;24.80;44.50;;;;;;5027447;28;20506;-59
2022/08/25 08:50:01;;;;;;;4.10;3.80;;;24.80;45.20;;;;;;5026193;28;20526;-58
2022/08/25 08:52:58;;;;;;;2.97;2.83;;;24.80;44.40;;;;;;5031600;28;20438;-59
2022/08/25 08:55:32;;;;;;;4.10;3.37;;;24.80;44.40;;;;;;5027890;28;20803;-61
2022/08/25 08:58:29;;;;;;;3.37;3.10;;;24.80;44.20;;;;;;5031577;28;20470;-60
2022/08/25 09:00:57;;;;;;;3.33;3.13;;;24.80;44.20;;;;;;5024809;28;20444;-60
2022/08/25 09:03:51;;;;;;;3.63;3.33;;;24.80;44.10;;;;;;5027615;28;20930;-59
2022/08/25 09:06:26;;;;;;;3.43;3.23;;;24.90;44.80;;;;;;5030309;28;20520;-59
2022/08/25 09:08:57;;;;;;;3.23;3.03;;;24.90;43.50;;;;;;5029446;28;20435;-59
2022/08/25 09:11:56;;;;;;;3.07;2.87;;;24.90;43.50;;;;;;5031825;28;20435;-61
2022/08/25 09:14:34;;;;;;;3.70;3.40;;;24.90;43.50;;;;;;5031424;28;20474;-60
2022/08/25 09:17:07;;;;;;;5.70;3.50;;;24.90;43.50;;;;;;5024186;28;20448;-59
2022/08/25 09:19:47;;;;;;;3.20;2.97;;;24.80;43.40;;;;;;5030837;28;20471;-61
2022/08/25 09:22:23;;;;;;;3.50;3.30;;;24.80;43.40;;;;;;5027291;28;20518;-60
2022/08/25 09:25:13;;;;;;;3.07;2.83;;;24.80;43.30;;;;;;5028835;28;20486;-59
2022/08/25 09:28:16;;;;;;;3.00;2.80;;;24.80;43.00;;;;;;5016656;28;20448;-61
2022/08/25 09:30:52;;;;;;;3.33;3.20;;;24.80;43.00;;;;;;5025920;28;20439;-59
2022/08/25 09:33:21;;;;;;;3.47;3.27;;;24.80;42.80;;;;;;5028930;28;20444;-60
2022/08/25 09:35:53;;;;;;;2.83;2.73;;;24.80;42.70;;;;;;5029008;28;20537;-59
2022/08/25 09:38:19;;;;;;;3.27;2.97;;;24.80;42.70;;;;;;5028596;28;20538;-59
2022/08/25 09:40:50;;;;;;;5.40;3.23;;;24.80;42.50;;;;;;5030385;28;20496;-58
2022/08/25 09:43:36;;;;;;;3.50;3.30;;;24.80;42.40;;;;;;5031619;28;20517;-59
2022/08/25 09:46:26;;;;;;;3.40;3.10;;;24.80;42.40;;;;;;5026693;28;20435;-60
2022/08/25 09:48:58;;;;;;;2.90;2.73;;;24.80;42.30;;;;;;5021511;28;20503;-60
2022/08/25 09:51:43;;;;;;;3.57;3.30;;;24.80;42.30;;;;;;5024874;28;20858;-59
2022/08/25 09:54:15;;;;;;;3.30;3.00;;;24.80;42.30;;;;;;5028476;28;20438;-59
2022/08/25 09:56:56;;;;;;;3.60;3.30;;;24.80;42.30;;;;;;5028467;28;20790;-58
2022/08/25 09:59:36;;;;;;;2.80;2.70;;;24.80;42.30;;;;;;5021947;28;23192;-59
2022/08/25 10:02:27;;;;;;;3.23;2.97;;;24.80;42.30;;;;;;5028253;28;20435;-60
2022/08/25 10:04:53;;;;;;;3.40;3.20;;;24.80;43.10;;;;;;5017414;28;20435;-62
2022/08/25 10:07:25;;;;;;;3.07;2.87;;;24.80;42.30;;;;;;4999763;28;20447;-61
2022/08/25 10:10:01;;;;;;;4.73;4.43;;;24.80;42.20;;;;;;5002120;28;20489;-62
2022/08/25 10:12:37;;;;;;;3.23;3.03;;;24.80;42.20;;;;;;5011631;28;20443;-59
2022/08/25 10:15:26;;;;;;;3.10;2.90;;;24.80;42.10;;;;;;5000562;28;20468;-59
2022/08/25 10:17:53;;;;;;;4.23;3.03;;;24.80;42.00;;;;;;5001775;28;20659;-59
2022/08/25 10:20:24;;;;;;;2.80;2.70;;;24.80;42.10;;;;;;4997060;28;20437;-64
2022/08/25 10:22:52;;;;;;;3.40;3.13;;;24.80;42.10;;;;;;5006289;28;20540;-63
2022/08/25 10:25:26;;;;;;;4.07;3.10;;;24.80;42.20;;;;;;5004763;28;21101;-59
2022/08/25 10:28:26;;;;;;;3.00;2.80;;;24.80;42.10;;;;;;5008098;28;20445;-59
2022/08/25 10:31:13;;;;;;;2.97;2.80;;;24.80;42.10;;;;;;5001252;28;20433;-58
2022/08/25 10:33:46;;;;;;;2.73;2.63;;;24.80;42.00;;;;;;5005939;28;20458;-63
2022/08/25 10:36:58;;;;;;;2.93;2.83;;;24.80;41.90;;;;;;5015433;28;20459;-58
2022/08/25 10:39:52;;;;;;;3.00;2.80;;;24.80;41.90;;;;;;4977190;28;20543;-61
2022/08/25 10:42:29;;;;;;;2.90;2.70;;;24.80;42.00;;;;;;5025373;28;20483;-59
2022/08/25 10:45:44;;;;;;;3.07;2.87;;;24.80;42.00;;;;;;5026771;28;20424;-58
2022/08/25 10:48:26;;;;;;;2.90;2.70;;;24.80;41.90;;;;;;5025993;28;20460;-59
2022/08/25 10:50:59;;;;;;;3.13;2.90;;;24.80;41.90;;;;;;5027239;28;20524;-59
2022/08/25 10:53:35;;;;;;;2.63;2.43;;;24.80;42.00;;;;;;5024745;28;20542;-59
2022/08/25 10:56:30;;;;;;;3.00;2.80;;;24.80;42.00;;;;;;5022310;28;20514;-66
2022/08/25 10:59:08;;;;;;;2.90;2.70;;;24.80;42.00;;;;;;5024334;28;20507;-63
2022/08/25 11:01:40;;;;;;;2.80;2.60;;;24.80;41.90;;;;;;5038335;28;20947;-64
2022/08/25 11:04:13;;;;;;;3.23;2.93;;;24.80;41.90;;;;;;5008760;28;20451;-65
2022/08/25 11:06:58;;;;;;;6.50;2.80;;;24.80;42.20;;;;;;5001581;28;20447;-65
2022/08/25 11:09:38;;;;;;;163.00;36.00;;;24.80;42.50;;;;;;5001584;28;20441;-69
2022/08/25 11:12:10;;;;;;;71.43;14.20;;;24.80;42.70;;;;;;5000058;28;20508;-67
2022/08/25 11:14:42;;;;;;;246.97;30.43;;;24.80;44.20;;;;;;5007819;28;21393;-64
2022/08/25 11:17:51;;;;;;;346.77;40.63;;;24.80;43.40;;;;;;5029490;28;20508;-63
2022/08/25 11:20:21;;;;;;;184.60;25.60;;;24.90;43.50;;;;;;5023466;28;20466;-63
2022/08/25 11:23:07;;;;;;;164.97;28.10;;;24.90;44.40;;;;;;5029310;28;20434;-63
2022/08/25 11:25:48;;;;;;;166.23;22.13;;;24.90;44.90;;;;;;5025661;28;20454;-63
2022/08/25 11:28:23;;;;;;;632.67;52.47;;;24.90;45.30;;;;;;5026336;28;20432;-63
2022/08/25 11:30:51;;;;;;;144.13;21.13;;;25.00;46.10;;;;;;5031030;28;20419;-64
2022/08/25 11:33:22;;;;;;;133.17;22.70;;;25.00;46.70;;;;;;5033887;28;20423;-60
2022/08/25 11:36:32;;;;;;;488.97;49.43;;;25.00;47.00;;;;;;5025297;28;20447;-64
2022/08/25 11:39:22;;;;;;;295.27;30.77;;;25.00;47.00;;;;;;5019695;28;20487;-63
2022/08/25 11:41:47;;;;;;;381.37;41.20;;;25.00;47.10;;;;;;5030794;28;20448;-63
2022/08/25 11:44:24;;;;;;;80.67;15.00;;;25.00;48.10;;;;;;5030243;28;20625;-63
2022/08/25 11:47:00;;;;;;;45.20;9.20;;;25.00;47.20;;;;;;5031400;28;20178;-63
2022/08/25 11:49:52;;;;;;;24.00;7.40;;;25.00;47.00;;;;;;5030065;28;20546;-62
2022/08/25 11:52:44;;;;;;;42.80;8.73;;;25.00;47.30;;;;;;5029704;28;20848;-62
2022/08/25 11:55:13;;;;;;;20.67;5.87;;;25.00;46.30;;;;;;5031501;28;20435;-63
2022/08/25 11:57:40;;;;;;;7.67;4.10;;;25.00;45.70;;;;;;5030231;28;20771;-62
2022/08/25 12:00:34;;;;;;;56.27;7.70;;;25.00;45.20;;;;;;5030268;28;20447;-61
2022/08/25 12:03:35;;;;;;;33.67;5.97;;;25.00;45.30;;;;;;5030759;28;20965;-61
2022/08/25 12:06:23;;;;;;;42.50;6.07;;;25.00;45.50;;;;;;5029882;28;20482;-63
2022/08/25 12:09:03;;;;;;;16.40;5.20;;;25.00;45.50;;;;;;5029516;28;20447;-66
2022/08/25 12:11:38;;;;;;;18.27;5.50;;;25.00;45.50;;;;;;5029265;28;20518;-63
2022/08/25 12:14:35;;;;;;;5.20;3.23;;;25.00;45.40;;;;;;5031402;28;20476;-63
2022/08/25 12:17:17;;;;;;;6.33;3.47;;;25.00;45.20;;;;;;5031267;28;20432;-62
2022/08/25 12:19:42;;;;;;;20.87;5.33;;;25.00;44.80;;;;;;5031314;28;20451;-61
2022/08/25 12:22:09;;;;;;;15.10;4.30;;;25.00;45.00;;;;;;5032483;28;20897;-61
2022/08/25 12:24:42;;;;;;;19.13;4.20;;;25.00;45.20;;;;;;5031502;28;20209;-63
2022/08/25 12:27:19;;;;;;;21.00;5.30;;;25.00;45.10;;;;;;5029269;28;20435;-60
2022/08/25 12:29:51;;;;;;;23.13;5.40;;;25.00;45.40;;;;;;5027932;28;20477;-60
2022/08/25 12:32:51;;;;;;;8.17;4.40;;;25.00;45.70;;;;;;5031836;28;20526;-60
2022/08/25 12:35:37;;;;;;;13.00;5.93;;;25.00;46.00;;;;;;5028969;28;20439;-61
2022/08/25 12:38:07;;;;;;;7.00;3.90;;;25.10;46.30;;;;;;5030383;28;20483;-59
2022/08/25 12:40:59;;;;;;;12.20;4.80;;;25.10;46.80;;;;;;5029378;28;20462;-60
2022/08/25 12:43:30;;;;;;;8.40;3.60;;;25.10;46.90;;;;;;5025555;28;20455;-60
2022/08/25 12:46:22;;;;;;;14.10;4.50;;;25.10;47.30;;;;;;5028541;28;20523;-61
2022/08/25 12:48:59;;;;;;;13.40;4.57;;;25.10;47.40;;;;;;5024648;28;20447;-60
2022/08/25 12:51:55;;;;;;;3.50;3.10;;;25.10;47.50;;;;;;5026840;28;20496;-59
2022/08/25 12:54:53;;;;;;;3.43;3.17;;;25.10;47.60;;;;;;5031410;28;20842;-60
2022/08/25 12:57:43;;;;;;;3.60;3.30;;;25.10;47.70;;;;;;5029753;28;20494;-59
2022/08/25 13:00:55;;;;;;;3.90;3.50;;;25.10;47.70;;;;;;5031224;28;20938;-70
2022/08/25 13:03:27;;;;;;;4.33;3.00;;;25.10;47.80;;;;;;5026093;28;20479;-65
2022/08/25 13:06:12;;;;;;;5.60;3.40;;;25.10;48.10;;;;;;5027648;28;20428;-66
2022/08/25 13:08:47;;;;;;;5.23;3.40;;;25.10;48.40;;;;;;5030547;28;20475;-66
2022/08/25 13:11:37;;;;;;;4.53;2.70;;;25.10;48.40;;;;;;5030133;28;20434;-65
2022/08/25 13:14:23;;;;;;;2.63;2.43;;;25.10;48.20;;;;;;5027887;28;20440;-65
2022/08/25 13:16:54;;;;;;;3.27;3.00;;;25.10;47.80;;;;;;5027964;28;20436;-65
2022/08/25 13:19:25;;;;;;;3.07;2.53;;;25.10;47.30;;;;;;5028725;28;20468;-65